Macmerry, United Kingdom
Current Conditions -  °F | °C
As of 3:20 AM on Saturday 20 Dec 2014 (Local Time) from EGPH Reporting Station
Broken Clouds Broken Clouds  
Wind Chill: 33°   Ceiling: 3400
Heat Index: 41°   Visibility: 6mi
Dew Point: 37°   Wind: 15mph
Humidity: 87%   Direction: 260°W
Pressure: 29.83"   Gusts: 26mph
Location:  55.94°N, 2.91°W
Report Text: EGPH 200320Z 26013G23KT 9999 FEW021 BKN034 05/03 Q1010
Loading
Personal Weather Stations






























Interactive Weather Map New forecast layout! Learn more

10-Day Weather Forecast

Advertisements
Track Severe Weather on mobile